createdAt,value
2022-11-17T00:02:10.776Z,94924.56
2022-11-17T00:04:39.136Z,94859.47
2022-11-17T00:07:08.745Z,94943.59
2022-11-17T00:09:36.944Z,94918.44
2022-11-17T00:12:25.317Z,94890.09
2022-11-17T00:14:55.525Z,94867.66
2022-11-17T00:17:23.801Z,94934.13
2022-11-17T00:20:09.752Z,94823.78
2022-11-17T00:22:39.306Z,94917.25
2022-11-17T00:25:08.109Z,94864.03
2022-11-17T00:27:36.361Z,94886.97
2022-11-17T00:30:05.746Z,94982.44
2022-11-17T00:32:51.579Z,94887.19
2022-11-17T00:35:19.788Z,94850.72
2022-11-17T00:38:03.281Z,94833.41
2022-11-17T00:40:31.890Z,94866.13
2022-11-17T00:43:00.088Z,94863.53
2022-11-17T00:45:28.395Z,94859.47
2022-11-17T00:47:56.702Z,94878.00
2022-11-17T00:50:25.103Z,94877.63
2022-11-17T00:52:54.696Z,94870.81
2022-11-17T00:55:23.161Z,94746.69
2022-11-17T00:57:51.500Z,94834.59
2022-11-17T01:00:21.990Z,94818.81
2022-11-17T01:02:50.260Z,94821.97
2022-11-17T01:05:18.517Z,94836.84
2022-11-17T01:07:47.339Z,94828.28
2022-11-17T01:10:17.028Z,94823.97
2022-11-17T01:12:45.242Z,94823.25
2022-11-17T01:15:13.439Z,94805.13
2022-11-17T01:17:41.677Z,94759.03
2022-11-17T01:20:11.294Z,94767.13
2022-11-17T01:22:39.556Z,94792.09
2022-11-17T01:25:08.807Z,94770.50
2022-11-17T01:27:38.384Z,94796.66
2022-11-17T01:30:08.309Z,94759.28
2022-11-17T01:32:36.529Z,94783.56
2022-11-17T01:35:06.057Z,94850.47
2022-11-17T01:37:34.282Z,94814.78
2022-11-17T01:40:02.560Z,94837.88
2022-11-17T01:42:31.506Z,94785.84
2022-11-17T01:45:14.080Z,94787.56
2022-11-17T01:47:47.692Z,94824.69
2022-11-17T01:50:29.741Z,94816.09
2022-11-17T01:53:01.283Z,94802.75
2022-11-17T01:55:35.428Z,94778.00
2022-11-17T01:58:08.609Z,94750.81
2022-11-17T02:00:38.270Z,94780.22
2022-11-17T02:03:07.227Z,94764.91
2022-11-17T02:05:45.220Z,94785.50
2022-11-17T02:08:13.548Z,94752.31
2022-11-17T02:10:48.596Z,94734.75
2022-11-17T02:13:20.381Z,94733.94
2022-11-17T02:15:50.227Z,94758.47
2022-11-17T02:18:19.790Z,94726.91
2022-11-17T02:21:11.313Z,94770.28
2022-11-17T02:24:15.924Z,94764.28
2022-11-17T02:27:33.265Z,94736.50
2022-11-17T02:30:06.778Z,94740.47
2022-11-17T02:32:49.180Z,94741.72
2022-11-17T02:35:26.232Z,94697.03
2022-11-17T02:38:03.407Z,94718.72
2022-11-17T02:40:35.508Z,94662.38
2022-11-17T02:43:28.059Z,94703.78
2022-11-17T02:46:02.772Z,94722.03
2022-11-17T02:48:35.523Z,94706.97
2022-11-17T02:51:06.583Z,94753.81
2022-11-17T02:53:37.024Z,94621.38
2022-11-17T02:56:06.288Z,94687.78
2022-11-17T02:58:34.582Z,94705.56
2022-11-17T03:01:45.890Z,94662.13
2022-11-17T03:04:51.072Z,94643.63
2022-11-17T03:07:40.349Z,94623.09
2022-11-17T03:10:15.789Z,94639.63
2022-11-17T03:12:53.627Z,94640.38
2022-11-17T03:15:30.339Z,94616.69
2022-11-17T03:18:10.922Z,94661.19
2022-11-17T03:20:44.555Z,94594.75
2022-11-17T03:23:20.801Z,94646.56
2022-11-17T03:25:54.728Z,94648.94
2022-11-17T03:28:28.978Z,94576.88
2022-11-17T03:30:58.217Z,94617.94
2022-11-17T03:33:30.383Z,94596.19
2022-11-17T03:36:03.378Z,94623.63
2022-11-17T03:38:36.438Z,94601.41
2022-11-17T03:41:06.700Z,94586.28
2022-11-17T03:43:35.561Z,94590.44
2022-11-17T03:46:08.838Z,94582.38
2022-11-17T03:48:44.781Z,94618.16
2022-11-17T03:51:16.679Z,94627.47
2022-11-17T03:53:46.337Z,94553.38
2022-11-17T03:56:32.580Z,94625.38
2022-11-17T03:59:06.127Z,94505.69
2022-11-17T04:01:36.137Z,94578.69
2022-11-17T04:04:50.539Z,94605.69
2022-11-17T04:07:18.873Z,94616.72
2022-11-17T04:09:47.152Z,94662.97
2022-11-17T04:12:33.113Z,94661.88
2022-11-17T04:15:19.546Z,94622.44
2022-11-17T04:17:48.016Z,94648.22
2022-11-17T04:20:18.094Z,94630.09
2022-11-17T04:22:46.363Z,94647.59
2022-11-17T04:25:34.747Z,94634.59
2022-11-17T04:28:20.804Z,94583.88
2022-11-17T04:30:49.029Z,94581.03
2022-11-17T04:33:17.274Z,94637.44
2022-11-17T04:35:51.278Z,94646.66
2022-11-17T04:38:19.581Z,94666.00
2022-11-17T04:41:01.727Z,94673.47
2022-11-17T04:43:30.004Z,94666.41
2022-11-17T04:46:00.670Z,94688.53
2022-11-17T04:48:29.512Z,94586.16
2022-11-17T04:50:59.187Z,94643.13
2022-11-17T04:53:27.399Z,94655.13
2022-11-17T04:55:55.704Z,94625.50
2022-11-17T04:58:23.969Z,94608.81
2022-11-17T05:00:52.207Z,94624.16
2022-11-17T05:03:20.526Z,94592.97
2022-11-17T05:05:49.561Z,94569.97
2022-11-17T05:08:19.240Z,94590.28
2022-11-17T05:11:19.490Z,94602.44
2022-11-17T05:13:50.909Z,94598.63
2022-11-17T05:16:36.998Z,94581.53
2022-11-17T05:19:06.188Z,94596.22
2022-11-17T05:21:34.465Z,94609.06
2022-11-17T05:24:03.326Z,94632.63
2022-11-17T05:26:34.221Z,94631.41
2022-11-17T05:29:05.610Z,94500.88
2022-11-17T05:31:34.331Z,94591.63
2022-11-17T05:34:03.279Z,94602.63
2022-11-17T05:36:31.815Z,94522.94
2022-11-17T05:39:00.372Z,94583.91
2022-11-17T05:41:30.128Z,94614.13
2022-11-17T05:43:59.288Z,94644.75
2022-11-17T05:46:28.040Z,94629.13
2022-11-17T05:48:56.347Z,94631.28
2022-11-17T05:51:25.741Z,94661.84
2022-11-17T05:53:54.026Z,94612.91
2022-11-17T05:56:37.872Z,94658.88
2022-11-17T05:59:23.321Z,94643.22
2022-11-17T06:02:02.151Z,94652.06
2022-11-17T06:04:30.538Z,94631.94
2022-11-17T06:07:00.421Z,94628.69
2022-11-17T06:09:32.947Z,94604.34
2022-11-17T06:12:05.936Z,94596.84
2022-11-17T06:14:35.506Z,94600.69
2022-11-17T06:17:07.832Z,94576.38
2022-11-17T06:19:39.509Z,94597.25
2022-11-17T06:22:13.340Z,94593.88
2022-11-17T06:24:43.372Z,94584.84
2022-11-17T06:27:16.800Z,94587.69
2022-11-17T06:29:46.928Z,94582.31
2022-11-17T06:32:17.578Z,94619.16
2022-11-17T06:34:53.686Z,94597.34
2022-11-17T06:37:23.824Z,94589.13
2022-11-17T06:39:52.141Z,94726.03
2022-11-17T06:42:41.846Z,94524.22
2022-11-17T06:45:11.730Z,94612.22
2022-11-17T06:47:40.342Z,94601.63
2022-11-17T06:50:10.478Z,94595.72
2022-11-17T06:52:39.556Z,94618.69
2022-11-17T06:55:09.727Z,94622.91
2022-11-17T06:57:39.382Z,94575.59
2022-11-17T07:00:09.442Z,94594.53
2022-11-17T07:02:37.810Z,94615.06
2022-11-17T07:05:06.880Z,94662.25
2022-11-17T07:07:35.230Z,94581.72
2022-11-17T07:10:03.544Z,94600.22
2022-11-17T07:12:31.809Z,94583.72
2022-11-17T07:15:01.367Z,94591.38
2022-11-17T07:17:29.719Z,94590.22
2022-11-17T07:19:58.015Z,94593.06
2022-11-17T07:22:26.325Z,94557.22
2022-11-17T07:24:54.544Z,94620.28
2022-11-17T07:27:22.868Z,94613.56
2022-11-17T07:29:51.119Z,94597.47
2022-11-17T07:32:20.795Z,94620.09
2022-11-17T07:34:50.420Z,94583.56
2022-11-17T07:37:18.811Z,94617.88
2022-11-17T07:39:47.056Z,94621.09
2022-11-17T07:42:15.303Z,94593.09
2022-11-17T07:44:43.978Z,94655.56
2022-11-17T07:47:12.262Z,94626.97
2022-11-17T07:49:41.889Z,94519.00
2022-11-17T07:52:10.136Z,94584.72
2022-11-17T07:54:38.419Z,94597.25
2022-11-17T07:57:06.673Z,94562.59
2022-11-17T07:59:34.928Z,94597.25
2022-11-17T08:02:03.287Z,94617.88
2022-11-17T08:04:31.527Z,94570.50
2022-11-17T08:07:01.636Z,94560.22
2022-11-17T08:09:29.898Z,94590.25
2022-11-17T08:11:59.517Z,94592.63
2022-11-17T08:14:27.802Z,94610.41
2022-11-17T08:16:56.073Z,94602.97
2022-11-17T08:19:24.348Z,94579.38
2022-11-17T08:21:52.604Z,94605.81
2022-11-17T08:24:22.194Z,94589.69
2022-11-17T08:26:50.611Z,94607.41
2022-11-17T08:29:19.511Z,94598.56
2022-11-17T08:31:47.863Z,94602.38
2022-11-17T08:34:16.420Z,94630.22
2022-11-17T08:36:44.685Z,94623.56
2022-11-17T08:39:13.125Z,94621.38
2022-11-17T08:41:42.734Z,94630.44
2022-11-17T08:44:11.007Z,94633.47
2022-11-17T08:46:39.354Z,94591.50
2022-11-17T08:49:07.605Z,94583.63
2022-11-17T08:51:35.878Z,94616.94
2022-11-17T08:54:04.416Z,94618.75
2022-11-17T08:56:32.695Z,94661.94
2022-11-17T08:59:03.797Z,94633.91
2022-11-17T09:01:32.144Z,94616.34
2022-11-17T09:04:01.696Z,94605.06
2022-11-17T09:06:33.461Z,94647.66
2022-11-17T09:09:02.411Z,94603.84
2022-11-17T09:11:30.862Z,94617.56
2022-11-17T09:13:59.073Z,94604.63
2022-11-17T09:16:28.915Z,94640.78
2022-11-17T09:18:58.341Z,94605.41
2022-11-17T09:21:27.788Z,94249.22
2022-11-17T09:23:56.536Z,94620.97
2022-11-17T09:26:25.077Z,94636.09
2022-11-17T09:28:53.337Z,94612.69
2022-11-17T09:31:23.529Z,94587.44
2022-11-17T09:33:54.167Z,94591.28
2022-11-17T09:36:22.649Z,94593.69
2022-11-17T09:38:51.868Z,94600.56
2022-11-17T09:41:28.099Z,94600.97
2022-11-17T09:44:07.618Z,94618.31
2022-11-17T09:47:02.940Z,94629.00
2022-11-17T09:49:44.692Z,94632.03
2022-11-17T09:52:20.616Z,94562.63
2022-11-17T09:54:54.449Z,94667.00
2022-11-17T09:57:37.965Z,94605.38
2022-11-17T10:00:16.820Z,94650.00
2022-11-17T10:02:46.384Z,94648.78
2022-11-17T10:05:20.180Z,94567.19
2022-11-17T10:07:53.034Z,94643.28
2022-11-17T10:10:26.717Z,94659.84
2022-11-17T10:12:59.326Z,94681.25
2022-11-17T10:15:31.566Z,94662.25
2022-11-17T10:17:59.799Z,94612.56
2022-11-17T10:20:29.597Z,94664.31
2022-11-17T10:22:58.722Z,94675.59
2022-11-17T10:25:39.639Z,94676.78
2022-11-17T10:28:09.852Z,94652.97
2022-11-17T10:30:38.143Z,94646.09
2022-11-17T10:33:06.453Z,94646.09
2022-11-17T10:35:37.368Z,94660.59
2022-11-17T10:38:14.686Z,94676.56
2022-11-17T10:40:50.249Z,94659.59
2022-11-17T10:43:24.692Z,94669.88
2022-11-17T10:45:55.657Z,94655.13
2022-11-17T10:48:30.456Z,94668.66
2022-11-17T10:51:02.569Z,94626.78
2022-11-17T10:53:43.008Z,94644.75
2022-11-17T10:56:17.694Z,94644.00
2022-11-17T10:59:14.063Z,94651.66
2022-11-17T11:01:44.385Z,94625.38
2022-11-17T11:04:35.408Z,94615.81
2022-11-17T11:07:12.649Z,94620.03
2022-11-17T11:09:49.707Z,94623.31
2022-11-17T11:12:23.221Z,94633.03
2022-11-17T11:14:56.085Z,94582.53
2022-11-17T11:17:29.666Z,94602.13
2022-11-17T11:19:58.451Z,94616.78
2022-11-17T11:22:37.978Z,94615.72
2022-11-17T11:25:28.237Z,94587.00
2022-11-17T11:28:16.285Z,94609.63
2022-11-17T11:31:01.859Z,94611.38
2022-11-17T11:33:37.895Z,94591.88
2022-11-17T11:36:27.777Z,94633.00
2022-11-17T11:39:05.315Z,94607.16
2022-11-17T11:42:07.755Z,94547.88
2022-11-17T11:44:57.597Z,94612.28
2022-11-17T11:47:43.604Z,94577.69
2022-11-17T11:50:17.220Z,94590.06
2022-11-17T11:52:50.796Z,94586.09
2022-11-17T11:55:23.690Z,94591.50
2022-11-17T11:58:00.076Z,94608.38
2022-11-17T12:00:28.597Z,94568.09
2022-11-17T12:03:05.604Z,94631.19
2022-11-17T12:05:43.243Z,94619.78
2022-11-17T12:08:18.471Z,94661.00
2022-11-17T12:10:54.850Z,94612.63
2022-11-17T12:13:25.279Z,94645.47
2022-11-17T12:16:19.606Z,94613.31
2022-11-17T12:18:47.936Z,94601.84
2022-11-17T12:21:24.384Z,94657.44
2022-11-17T12:24:14.912Z,94636.91
2022-11-17T12:26:45.015Z,94607.91
2022-11-17T12:29:32.535Z,94609.31
2022-11-17T12:32:03.396Z,94647.16
2022-11-17T12:34:35.771Z,94634.28
2022-11-17T12:37:19.708Z,94605.91
2022-11-17T12:40:03.566Z,94665.03
2022-11-17T12:42:34.678Z,94583.31
2022-11-17T12:45:21.364Z,94636.03
2022-11-17T12:48:11.300Z,94647.44
2022-11-17T12:50:59.370Z,94639.09
2022-11-17T12:53:54.912Z,94605.00
2022-11-17T12:56:59.761Z,94613.91
2022-11-17T13:00:07.746Z,94628.38
2022-11-17T13:02:59.441Z,94599.72
2022-11-17T13:05:30.423Z,94638.22
2022-11-17T13:08:25.904Z,94656.06
2022-11-17T13:11:05.518Z,94648.44
2022-11-17T13:13:36.782Z,94635.59
2022-11-17T13:16:16.998Z,94652.88
2022-11-17T13:18:46.051Z,94666.25
2022-11-17T13:21:30.601Z,94628.22
2022-11-17T13:24:00.472Z,94665.34
2022-11-17T13:26:35.977Z,94555.19
2022-11-17T13:29:06.951Z,94624.81
2022-11-17T13:31:36.951Z,94658.25
2022-11-17T13:34:08.875Z,94663.38
2022-11-17T13:36:37.857Z,94642.34
2022-11-17T13:39:19.638Z,94665.09
2022-11-17T13:41:51.987Z,94654.44
2022-11-17T13:44:25.490Z,94658.53
2022-11-17T13:46:56.157Z,94661.75
2022-11-17T13:49:37.528Z,94672.28
2022-11-17T13:52:14.353Z,94652.69
2022-11-17T13:54:45.461Z,94677.31
2022-11-17T13:57:29.146Z,94650.69
2022-11-17T13:59:58.662Z,94629.09
2022-11-17T14:02:30.294Z,94648.91
2022-11-17T14:05:22.681Z,94662.69
2022-11-17T14:07:53.929Z,94679.81
2022-11-17T14:10:33.090Z,94656.34
2022-11-17T14:13:28.277Z,94689.72
2022-11-17T14:16:01.668Z,94602.78
2022-11-17T14:18:36.863Z,94648.84
2022-11-17T14:21:14.826Z,94645.25
2022-11-17T14:23:44.892Z,94631.63
2022-11-17T14:26:24.971Z,94620.03
2022-11-17T14:28:53.976Z,94647.91
2022-11-17T14:31:22.276Z,94686.56
2022-11-17T14:33:52.396Z,94670.47
2022-11-17T14:36:20.714Z,94671.63
2022-11-17T14:38:49.487Z,94649.94
2022-11-17T14:41:19.362Z,94620.94
2022-11-17T14:43:48.286Z,94648.44
2022-11-17T14:46:21.729Z,94668.13
2022-11-17T14:48:51.744Z,94661.81
2022-11-17T14:51:21.384Z,94661.22
2022-11-17T14:53:49.806Z,94594.88
2022-11-17T14:56:20.952Z,94649.94
2022-11-17T14:58:54.661Z,94691.81
2022-11-17T15:01:28.350Z,94688.84
2022-11-17T15:04:20.598Z,94660.72
2022-11-17T15:06:55.664Z,94626.94
2022-11-17T15:09:23.974Z,94622.84
2022-11-17T15:11:52.669Z,94583.50
2022-11-17T15:14:20.945Z,94672.16
2022-11-17T15:16:49.264Z,94641.88
2022-11-17T15:19:19.100Z,94675.81
2022-11-17T15:21:47.495Z,94709.91
2022-11-17T15:24:16.214Z,94668.81
2022-11-17T15:26:44.630Z,94701.84
2022-11-17T15:29:15.890Z,94738.88
2022-11-17T15:31:44.520Z,94710.31
2022-11-17T15:34:18.590Z,94706.50
2022-11-17T15:36:50.209Z,94699.47
2022-11-17T15:39:18.827Z,94707.94
2022-11-17T15:41:48.769Z,94665.16
2022-11-17T15:44:18.762Z,94684.75
2022-11-17T15:46:48.075Z,94673.22
2022-11-17T15:49:16.913Z,94732.81
2022-11-17T15:51:45.533Z,94667.13
2022-11-17T15:54:20.379Z,94668.97
2022-11-17T15:56:49.561Z,94645.38
2022-11-17T15:59:18.092Z,94653.38
2022-11-17T16:01:46.710Z,94588.31
2022-11-17T16:04:16.325Z,94737.28
2022-11-17T16:06:46.862Z,94684.97
2022-11-17T16:09:17.116Z,94571.94
2022-11-17T16:11:45.903Z,94734.66
2022-11-17T16:14:14.863Z,94745.19
2022-11-17T16:16:43.732Z,94667.22
2022-11-17T16:19:12.085Z,94676.53
2022-11-17T16:21:40.837Z,94690.84
2022-11-17T16:24:11.910Z,94672.06
2022-11-17T16:26:41.499Z,94717.28
2022-11-17T16:29:09.828Z,94629.88
2022-11-17T16:31:38.958Z,94690.22
2022-11-17T16:34:11.494Z,94690.44
2022-11-17T16:36:41.739Z,94683.97
2022-11-17T16:39:13.284Z,94688.22
2022-11-17T16:41:46.330Z,94705.59
2022-11-17T16:44:17.906Z,94616.53
2022-11-17T16:46:48.053Z,94687.81
2022-11-17T16:49:18.828Z,94697.09
2022-11-17T16:51:54.411Z,94564.19
2022-11-17T16:54:22.674Z,94734.66
2022-11-17T16:56:52.276Z,94697.72
2022-11-17T16:59:20.631Z,94714.06
2022-11-17T17:01:48.961Z,94637.97
2022-11-17T17:04:17.221Z,94676.72
2022-11-17T17:06:47.046Z,94668.22
2022-11-17T17:09:16.683Z,94686.78
2022-11-17T17:11:45.696Z,94703.94
2022-11-17T17:14:16.824Z,94691.47
2022-11-17T17:16:45.184Z,94682.16
2022-11-17T17:19:16.554Z,94642.34
2022-11-17T17:21:45.620Z,94634.69
2022-11-17T17:24:13.994Z,94684.34
2022-11-17T17:26:42.434Z,94689.03
2022-11-17T17:29:12.303Z,94683.72
2022-11-17T17:31:43.547Z,94686.97
2022-11-17T17:34:14.966Z,94699.88
2022-11-17T17:36:43.859Z,94692.22
2022-11-17T17:39:15.728Z,94672.47
2022-11-17T17:41:45.848Z,94638.72
2022-11-17T17:44:17.569Z,94643.81
2022-11-17T17:46:48.698Z,94712.78
2022-11-17T17:49:19.016Z,94641.34
2022-11-17T17:51:48.274Z,94647.38
2022-11-17T17:54:18.752Z,94709.56
2022-11-17T17:56:47.407Z,94684.16
2022-11-17T17:59:16.576Z,94705.59
2022-11-17T18:01:47.797Z,94668.03
2022-11-17T18:04:17.273Z,94698.91
2022-11-17T18:06:48.060Z,94700.94
2022-11-17T18:09:19.353Z,94666.81
2022-11-17T18:11:50.059Z,94697.28
2022-11-17T18:14:24.310Z,94681.53
2022-11-17T18:16:55.059Z,94677.72
2022-11-17T18:19:27.078Z,94719.88
2022-11-17T18:22:01.282Z,94679.53
2022-11-17T18:24:29.546Z,94683.31
2022-11-17T18:26:57.812Z,94710.00
2022-11-17T18:29:26.146Z,94718.91
2022-11-17T18:31:55.773Z,94632.72
2022-11-17T18:34:25.329Z,94689.41
2022-11-17T18:36:56.091Z,94697.50
2022-11-17T18:39:24.841Z,94627.66
2022-11-17T18:41:53.110Z,94682.16
2022-11-17T18:44:21.445Z,94631.47
2022-11-17T18:46:49.929Z,94691.59
2022-11-17T18:49:19.970Z,94705.97
2022-11-17T18:51:48.596Z,94694.28
2022-11-17T18:54:17.169Z,94637.09
2022-11-17T18:56:45.544Z,94628.84
2022-11-17T18:59:14.341Z,94683.94
2022-11-17T19:01:43.724Z,94621.97
2022-11-17T19:04:15.411Z,94712.75
2022-11-17T19:06:48.573Z,94709.16
2022-11-17T19:09:17.984Z,94651.03
2022-11-17T19:11:46.614Z,94701.28
2022-11-17T19:14:14.924Z,94590.41
2022-11-17T19:16:45.143Z,94685.56
2022-11-17T19:19:15.056Z,94661.13
2022-11-17T19:21:44.235Z,94703.09
2022-11-17T19:24:15.235Z,94684.50
2022-11-17T19:26:43.812Z,94698.41
2022-11-17T19:29:17.059Z,94702.84
2022-11-17T19:31:46.673Z,94732.91
2022-11-17T19:34:15.372Z,94740.59
2022-11-17T19:36:44.542Z,94761.75
2022-11-17T19:39:15.068Z,94727.28
2022-11-17T19:41:45.008Z,94725.03
2022-11-17T19:44:13.829Z,94735.53
2022-11-17T19:46:43.277Z,94774.06
2022-11-17T19:49:13.221Z,94736.72
2022-11-17T19:51:41.927Z,94724.03
2022-11-17T19:54:11.656Z,94730.13
2022-11-17T19:56:42.425Z,94614.44
2022-11-17T19:59:15.758Z,94747.84
2022-11-17T20:01:44.912Z,94765.25
2022-11-17T20:04:13.277Z,94746.66
2022-11-17T20:06:41.619Z,94748.31
2022-11-17T20:09:11.649Z,94754.75
2022-11-17T20:11:42.189Z,94624.22
2022-11-17T20:14:10.777Z,94745.84
2022-11-17T20:16:39.387Z,94690.84
2022-11-17T20:19:07.824Z,94725.41
2022-11-17T20:21:36.096Z,94803.94
2022-11-17T20:24:04.668Z,94747.06
2022-11-17T20:26:35.255Z,94726.03
2022-11-17T20:29:05.256Z,94728.13
2022-11-17T20:31:35.996Z,94785.81
2022-11-17T20:34:06.191Z,94717.00
2022-11-17T20:36:35.748Z,94758.75
2022-11-17T20:39:07.228Z,94777.34
2022-11-17T20:41:35.878Z,94738.56
2022-11-17T20:44:23.621Z,94760.75
2022-11-17T20:46:52.929Z,94750.06
2022-11-17T20:49:21.193Z,94748.88
2022-11-17T20:51:49.729Z,94736.94
2022-11-17T20:54:18.161Z,94757.97
2022-11-17T20:56:46.442Z,94753.69
2022-11-17T20:59:20.042Z,94819.81
2022-11-17T21:01:50.245Z,94845.31
2022-11-17T21:04:43.126Z,94743.47
2022-11-17T21:07:12.014Z,94780.97
2022-11-17T21:09:40.299Z,94776.56
2022-11-17T21:12:09.151Z,94742.03
2022-11-17T21:14:38.759Z,94727.53
2022-11-17T21:17:27.130Z,94725.16
2022-11-17T21:19:55.525Z,94678.75
2022-11-17T21:22:23.803Z,94735.22
2022-11-17T21:24:52.341Z,94719.06
2022-11-17T21:27:21.000Z,94717.47
2022-11-17T21:29:50.643Z,94737.06
2022-11-17T21:32:18.916Z,94680.00
2022-11-17T21:34:49.895Z,94683.25
2022-11-17T21:37:18.332Z,94710.66
2022-11-17T21:39:46.568Z,94677.81
2022-11-17T21:42:14.842Z,94767.16
2022-11-17T21:44:43.085Z,94723.53
2022-11-17T21:47:12.729Z,94711.06
2022-11-17T21:49:40.936Z,94709.44
2022-11-17T21:52:09.287Z,94698.19
2022-11-17T21:54:38.251Z,94721.56
2022-11-17T21:57:06.686Z,94737.72
2022-11-17T21:59:34.908Z,94773.63
2022-11-17T22:02:03.218Z,94778.00
2022-11-17T22:04:32.829Z,94745.97
2022-11-17T22:07:01.149Z,94758.84
2022-11-17T22:09:29.441Z,94771.56
2022-11-17T22:11:58.556Z,94824.59
2022-11-17T22:14:26.830Z,94721.34
2022-11-17T22:16:56.545Z,94682.63
2022-11-17T22:19:28.305Z,94767.75
2022-11-17T22:21:57.983Z,94712.88
2022-11-17T22:24:26.301Z,94799.41
2022-11-17T22:26:54.512Z,94781.63
2022-11-17T22:29:23.248Z,94792.13
2022-11-17T22:31:52.433Z,94771.16
2022-11-17T22:34:20.724Z,94733.47
2022-11-17T22:36:48.950Z,94790.91
2022-11-17T22:39:19.321Z,94765.31
2022-11-17T22:41:48.023Z,94784.34
2022-11-17T22:44:17.100Z,94803.34
2022-11-17T22:46:45.706Z,94809.03
2022-11-17T22:49:14.426Z,94826.75
2022-11-17T22:52:00.509Z,94915.50
2022-11-17T22:54:30.351Z,94812.19
2022-11-17T22:56:59.286Z,94843.22
2022-11-17T22:59:28.250Z,94772.22
2022-11-17T23:01:56.820Z,94803.47
2022-11-17T23:04:25.128Z,94802.44
2022-11-17T23:06:53.537Z,94791.75
2022-11-17T23:09:21.782Z,94813.53
2022-11-17T23:11:51.462Z,94812.91
2022-11-17T23:14:19.729Z,94804.97
2022-11-17T23:16:48.014Z,94781.09
2022-11-17T23:19:16.618Z,94806.22
2022-11-17T23:21:44.976Z,94777.59
2022-11-17T23:24:14.632Z,94754.34
2022-11-17T23:26:43.453Z,94698.06
2022-11-17T23:29:13.875Z,94781.88
2022-11-17T23:31:42.442Z,94796.84
2022-11-17T23:34:12.065Z,94781.53
2022-11-17T23:36:40.452Z,94803.25
2022-11-17T23:39:09.004Z,94743.44
2022-11-17T23:41:38.064Z,94789.56
2022-11-17T23:44:06.896Z,94798.63
2022-11-17T23:46:36.519Z,94715.59
2022-11-17T23:49:04.986Z,94744.38
2022-11-17T23:51:33.498Z,94735.88
2022-11-17T23:54:02.926Z,94740.19
2022-11-17T23:56:34.416Z,94745.59
2022-11-17T23:59:09.851Z,94618.69
